createdAt,value
2022-10-05T00:00:44.712Z,43.87
2022-10-05T00:03:11.873Z,39.60
2022-10-05T00:05:38.512Z,40.10
2022-10-05T00:08:11.741Z,47.57
2022-10-05T00:10:38.813Z,46.87
2022-10-05T00:13:07.171Z,42.03
2022-10-05T00:15:33.563Z,40.57
2022-10-05T00:18:00.083Z,35.90
2022-10-05T00:20:26.540Z,38.53
2022-10-05T00:22:57.376Z,36.53
2022-10-05T00:25:23.797Z,36.60
2022-10-05T00:27:57.255Z,39.77
2022-10-05T00:30:24.239Z,32.03
2022-10-05T00:32:50.690Z,38.97
2022-10-05T00:35:17.360Z,40.77
2022-10-05T00:37:43.847Z,40.83
2022-10-05T00:40:23.233Z,38.73
2022-10-05T00:42:49.631Z,46.77
2022-10-05T00:45:16.744Z,39.43
2022-10-05T00:47:43.131Z,42.57
2022-10-05T00:50:14.298Z,42.73
2022-10-05T00:52:49.869Z,43.97
2022-10-05T00:55:29.774Z,36.23
2022-10-05T00:57:59.275Z,32.20
2022-10-05T01:00:26.063Z,38.10
2022-10-05T01:03:04.642Z,37.50
2022-10-05T01:05:31.141Z,36.30
2022-10-05T01:08:02.113Z,29.27
2022-10-05T01:10:34.102Z,33.77
2022-10-05T01:13:05.877Z,29.07
2022-10-05T01:15:51.101Z,32.93
2022-10-05T01:18:23.673Z,31.83
2022-10-05T01:21:02.627Z,34.37
2022-10-05T01:23:35.293Z,29.30
2022-10-05T01:26:07.930Z,24.43
2022-10-05T01:28:37.413Z,27.73
2022-10-05T01:31:03.931Z,27.17
2022-10-05T01:33:33.630Z,25.63
2022-10-05T01:36:15.309Z,30.57
2022-10-05T01:38:55.820Z,22.63
2022-10-05T01:41:33.005Z,17.47
2022-10-05T01:44:00.751Z,21.13
2022-10-05T01:46:38.663Z,22.07
2022-10-05T01:49:20.553Z,18.50
2022-10-05T01:51:59.248Z,21.40
2022-10-05T01:54:44.024Z,19.20
2022-10-05T01:57:10.470Z,20.73
2022-10-05T01:59:41.266Z,19.10
2022-10-05T02:02:09.817Z,19.37
2022-10-05T02:05:01.347Z,19.17
2022-10-05T02:07:29.148Z,18.10
2022-10-05T02:09:57.545Z,20.30
2022-10-05T02:12:24.555Z,18.10
2022-10-05T02:14:52.089Z,14.03
2022-10-05T02:17:19.921Z,14.10
2022-10-05T02:19:51.254Z,20.53
2022-10-05T02:22:23.515Z,13.03
2022-10-05T02:25:13.389Z,15.23
2022-10-05T02:28:06.142Z,17.70
2022-10-05T02:30:33.017Z,15.50
2022-10-05T02:33:00.582Z,15.33
2022-10-05T02:35:27.022Z,15.67
2022-10-05T02:38:05.729Z,14.10
2022-10-05T02:40:45.394Z,13.03
2022-10-05T02:43:34.692Z,12.73
2022-10-05T02:46:20.079Z,13.80
2022-10-05T02:49:02.636Z,17.80
2022-10-05T02:51:35.438Z,13.97
2022-10-05T02:54:19.844Z,16.10
2022-10-05T02:56:57.611Z,13.33
2022-10-05T02:59:27.321Z,16.07
2022-10-05T03:02:01.957Z,12.13
2022-10-05T03:04:39.676Z,13.93
2022-10-05T03:07:15.022Z,17.37
2022-10-05T03:09:42.700Z,12.33
2022-10-05T03:12:16.053Z,19.80
2022-10-05T03:14:42.545Z,14.70
2022-10-05T03:17:11.948Z,18.17
2022-10-05T03:19:43.674Z,13.90
2022-10-05T03:22:19.256Z,15.87
2022-10-05T03:24:46.048Z,15.87
2022-10-05T03:27:18.778Z,14.03
2022-10-05T03:29:54.490Z,16.37
2022-10-05T03:32:20.869Z,14.30
2022-10-05T03:34:59.497Z,16.63
2022-10-05T03:37:28.266Z,19.07
2022-10-05T03:39:57.642Z,14.17
2022-10-05T03:42:25.455Z,16.57
2022-10-05T03:45:21.438Z,18.43
2022-10-05T03:47:50.877Z,14.13
2022-10-05T03:50:20.326Z,18.20
2022-10-05T03:52:56.799Z,14.87
2022-10-05T03:55:30.415Z,17.33
2022-10-05T03:57:57.939Z,15.40
2022-10-05T04:00:25.690Z,15.07
2022-10-05T04:03:04.589Z,16.83
2022-10-05T04:05:32.632Z,19.50
2022-10-05T04:08:11.539Z,20.17
2022-10-05T04:10:45.612Z,16.27
2022-10-05T04:13:15.206Z,18.23
2022-10-05T04:15:43.242Z,18.97
2022-10-05T04:18:13.782Z,15.33
2022-10-05T04:20:43.565Z,14.50
2022-10-05T04:23:09.957Z,10.67
2022-10-05T04:25:40.853Z,11.80
2022-10-05T04:28:12.062Z,12.23
2022-10-05T04:30:39.099Z,14.77
2022-10-05T04:33:07.842Z,8.50
2022-10-05T04:35:38.297Z,11.67
2022-10-05T04:38:10.913Z,10.83
2022-10-05T04:40:40.573Z,8.57
2022-10-05T04:43:19.999Z,9.73
2022-10-05T04:45:55.753Z,12.40
2022-10-05T04:48:28.277Z,12.70
2022-10-05T04:51:07.984Z,11.40
2022-10-05T04:53:34.419Z,14.77
2022-10-05T04:56:09.551Z,13.27
2022-10-05T04:58:42.089Z,12.53
2022-10-05T05:01:27.897Z,15.27
2022-10-05T05:03:57.456Z,11.60
2022-10-05T05:06:27.092Z,10.40
2022-10-05T05:08:53.505Z,14.83
2022-10-05T05:11:23.735Z,12.00
2022-10-05T05:13:53.863Z,12.80
2022-10-05T05:16:20.399Z,15.17
2022-10-05T05:18:46.877Z,13.73
2022-10-05T05:21:42.918Z,16.53
2022-10-05T05:24:15.286Z,15.83
2022-10-05T05:26:51.338Z,13.50
2022-10-05T05:29:17.997Z,11.03
2022-10-05T05:31:55.942Z,14.77
2022-10-05T05:34:27.825Z,14.60
2022-10-05T05:36:56.652Z,11.93
2022-10-05T05:39:27.942Z,15.77
2022-10-05T05:42:09.657Z,15.73
2022-10-05T05:44:38.881Z,11.77
2022-10-05T05:47:23.325Z,14.27
2022-10-05T05:49:53.446Z,13.97
2022-10-05T05:52:31.408Z,12.97
2022-10-05T05:55:08.650Z,16.33
2022-10-05T05:57:37.651Z,15.60
2022-10-05T06:00:13.623Z,13.43
2022-10-05T06:02:40.176Z,17.10
2022-10-05T06:05:42.305Z,14.33
2022-10-05T06:08:27.426Z,21.17
2022-10-05T06:10:56.562Z,15.43
2022-10-05T06:13:30.873Z,14.13
2022-10-05T06:15:58.877Z,18.73
2022-10-05T06:18:25.415Z,21.93
2022-10-05T06:20:57.282Z,16.30
2022-10-05T06:23:25.819Z,15.83
2022-10-05T06:26:10.680Z,15.47
2022-10-05T06:28:37.905Z,19.10
2022-10-05T06:31:23.448Z,13.13
2022-10-05T06:34:08.933Z,16.13
2022-10-05T06:36:35.419Z,17.80
2022-10-05T06:39:20.271Z,16.33
2022-10-05T06:41:49.867Z,17.97
2022-10-05T06:44:16.902Z,20.33
2022-10-05T06:47:03.268Z,21.00
2022-10-05T06:49:30.847Z,17.97
2022-10-05T06:52:06.369Z,17.53
2022-10-05T06:54:42.734Z,15.07
2022-10-05T06:57:24.778Z,18.47
2022-10-05T06:59:54.108Z,16.60
2022-10-05T07:02:20.626Z,15.80
2022-10-05T07:04:55.084Z,20.17
2022-10-05T07:07:23.664Z,15.00
2022-10-05T07:09:59.411Z,13.97
2022-10-05T07:12:28.993Z,13.33
2022-10-05T07:15:01.650Z,13.10
2022-10-05T07:17:50.963Z,17.20
2022-10-05T07:20:20.002Z,14.07
2022-10-05T07:22:54.331Z,10.33
2022-10-05T07:25:22.235Z,10.03
2022-10-05T07:28:00.425Z,11.53
2022-10-05T07:30:27.039Z,5.03
2022-10-05T07:32:56.753Z,13.03
2022-10-05T07:35:43.392Z,6.13
2022-10-05T07:38:19.517Z,7.47
2022-10-05T07:40:48.045Z,11.13
2022-10-05T07:43:14.705Z,8.30
2022-10-05T07:45:44.221Z,6.40
2022-10-05T07:48:19.733Z,8.07
2022-10-05T07:51:06.483Z,8.17
2022-10-05T07:53:32.898Z,5.93
2022-10-05T07:56:00.774Z,8.47
2022-10-05T07:58:36.637Z,6.60
2022-10-05T08:01:13.673Z,10.70
2022-10-05T08:03:45.571Z,7.60
2022-10-05T08:06:13.851Z,9.33
2022-10-05T08:08:49.240Z,11.23
2022-10-05T08:11:27.676Z,8.33
2022-10-05T08:14:01.892Z,9.07
2022-10-05T08:16:30.257Z,7.43
2022-10-05T08:19:01.569Z,9.67
2022-10-05T08:21:31.687Z,9.77
2022-10-05T08:24:00.497Z,9.77
2022-10-05T08:26:28.872Z,8.10
2022-10-05T08:29:00.954Z,9.87
2022-10-05T08:31:30.047Z,11.70
2022-10-05T08:34:17.944Z,9.67
2022-10-05T08:36:53.897Z,10.53
2022-10-05T08:39:20.844Z,9.33
2022-10-05T08:41:51.122Z,9.53
2022-10-05T08:44:36.435Z,9.37
2022-10-05T08:47:08.873Z,8.93
2022-10-05T08:49:54.152Z,8.23
2022-10-05T08:52:35.340Z,8.13
2022-10-05T08:55:20.229Z,8.43
2022-10-05T08:57:55.894Z,9.55
2022-10-05T09:00:22.510Z,8.43
2022-10-05T09:02:55.224Z,7.20
2022-10-05T09:05:21.683Z,15.13
2022-10-05T09:08:07.043Z,6.63
2022-10-05T09:10:52.337Z,8.20
2022-10-05T09:13:24.945Z,9.48
2022-10-05T09:16:10.355Z,6.32
2022-10-05T09:18:39.641Z,7.68
2022-10-05T09:21:26.298Z,7.93
2022-10-05T09:24:01.566Z,13.32
2022-10-05T09:26:43.424Z,7.38
2022-10-05T09:29:26.295Z,6.47
2022-10-05T09:31:55.684Z,7.65
2022-10-05T09:34:37.294Z,8.43
2022-10-05T09:37:04.057Z,5.32
2022-10-05T09:39:33.514Z,5.80
2022-10-05T09:42:15.810Z,4.88
2022-10-05T09:44:51.627Z,5.07
2022-10-05T09:47:30.341Z,4.88
2022-10-05T09:50:02.945Z,4.35
2022-10-05T09:52:41.737Z,3.55
2022-10-05T09:55:27.018Z,5.30
2022-10-05T09:58:12.576Z,6.68
2022-10-05T10:00:39.000Z,3.92
2022-10-05T10:03:24.327Z,7.13
2022-10-05T10:06:10.510Z,3.67
2022-10-05T10:08:43.656Z,3.85
2022-10-05T10:11:19.182Z,3.67
2022-10-05T10:14:00.454Z,6.32
2022-10-05T10:16:45.649Z,5.32
2022-10-05T10:19:12.875Z,4.93
2022-10-05T10:21:42.455Z,4.10
2022-10-05T10:24:21.157Z,3.42
2022-10-05T10:27:27.709Z,7.38
2022-10-05T10:30:12.589Z,3.97
2022-10-05T10:32:44.846Z,4.18
2022-10-05T10:35:19.539Z,7.15
2022-10-05T10:38:06.288Z,4.47
2022-10-05T10:40:37.725Z,2.53
2022-10-05T10:43:23.233Z,4.13
2022-10-05T10:45:54.441Z,3.58
2022-10-05T10:48:30.000Z,4.15
2022-10-05T10:51:12.434Z,4.55
2022-10-05T10:54:08.447Z,4.63
2022-10-05T10:56:47.407Z,10.40
2022-10-05T10:59:20.411Z,7.68
2022-10-05T11:01:50.905Z,4.20
2022-10-05T11:04:21.702Z,3.28
2022-10-05T11:06:48.379Z,5.22
2022-10-05T11:09:20.512Z,4.70
2022-10-05T11:12:05.926Z,4.32
2022-10-05T11:14:32.453Z,6.70
2022-10-05T11:17:11.284Z,5.72
2022-10-05T11:19:59.609Z,8.77
2022-10-05T11:22:46.796Z,9.70
2022-10-05T11:25:22.479Z,4.57
2022-10-05T11:28:07.911Z,8.00
2022-10-05T11:30:54.533Z,6.25
2022-10-05T11:33:33.459Z,5.43
2022-10-05T11:36:14.916Z,4.00
2022-10-05T11:38:55.392Z,3.08
2022-10-05T11:41:28.628Z,4.28
2022-10-05T11:44:06.074Z,3.97
2022-10-05T11:46:49.259Z,5.60
2022-10-05T11:49:31.248Z,5.28
2022-10-05T11:52:01.031Z,3.20
2022-10-05T11:54:27.724Z,2.80
2022-10-05T11:57:14.429Z,4.85
2022-10-05T11:59:50.173Z,3.60
2022-10-05T12:02:16.626Z,5.75
2022-10-05T12:04:46.608Z,4.63
2022-10-05T12:07:22.569Z,2.42
2022-10-05T12:10:24.773Z,5.18
2022-10-05T12:12:58.401Z,10.82
2022-10-05T12:15:43.730Z,3.92
2022-10-05T12:18:25.716Z,4.32
2022-10-05T12:21:04.398Z,2.95
2022-10-05T12:23:37.444Z,2.03
2022-10-05T12:26:05.506Z,4.05
2022-10-05T12:28:37.212Z,3.58
2022-10-05T12:31:16.001Z,3.00
2022-10-05T12:33:48.673Z,3.22
2022-10-05T12:36:16.631Z,2.05
2022-10-05T12:38:47.619Z,1.83
2022-10-05T12:41:18.002Z,3.28
2022-10-05T12:43:59.890Z,2.90
2022-10-05T12:46:39.105Z,6.10
2022-10-05T12:49:24.402Z,3.25
2022-10-05T12:51:51.147Z,5.57
2022-10-05T12:54:23.786Z,3.58
2022-10-05T12:57:01.145Z,3.47
2022-10-05T12:59:27.751Z,2.28
2022-10-05T13:02:00.615Z,1.95
2022-10-05T13:04:27.035Z,6.70
2022-10-05T13:06:56.194Z,3.55
2022-10-05T13:09:22.698Z,2.67
2022-10-05T13:11:49.820Z,2.40
2022-10-05T13:14:25.331Z,4.18
2022-10-05T13:16:56.037Z,4.18
2022-10-05T13:19:36.737Z,2.20
2022-10-05T13:22:03.218Z,2.95
2022-10-05T13:24:45.880Z,3.88
2022-10-05T13:27:22.193Z,4.57
2022-10-05T13:29:54.311Z,3.85
2022-10-05T13:32:23.284Z,3.97
2022-10-05T13:35:16.892Z,4.35
2022-10-05T13:38:02.074Z,3.85
2022-10-05T13:40:28.529Z,2.95
2022-10-05T13:42:59.188Z,3.88
2022-10-05T13:45:31.564Z,2.47
2022-10-05T13:48:03.639Z,5.80
2022-10-05T13:50:33.446Z,2.58
2022-10-05T13:53:00.296Z,2.33
2022-10-05T13:55:33.938Z,2.15
2022-10-05T13:58:12.549Z,3.10
2022-10-05T14:00:57.792Z,3.72
2022-10-05T14:03:35.145Z,4.47
2022-10-05T14:06:02.549Z,4.22
2022-10-05T14:08:35.693Z,2.40
2022-10-05T14:11:21.396Z,4.20
2022-10-05T14:13:50.778Z,3.72
2022-10-05T14:16:21.300Z,2.92
2022-10-05T14:19:06.067Z,3.83
2022-10-05T14:21:33.005Z,2.35
2022-10-05T14:24:43.595Z,2.33
2022-10-05T14:27:19.987Z,2.25
2022-10-05T14:29:47.705Z,2.85
2022-10-05T14:32:15.071Z,4.40
2022-10-05T14:35:05.320Z,2.17
2022-10-05T14:37:32.503Z,3.75
2022-10-05T14:40:03.283Z,3.25
2022-10-05T14:42:30.638Z,2.35
2022-10-05T14:45:00.897Z,3.42
2022-10-05T14:47:28.323Z,3.75
2022-10-05T14:50:14.033Z,1.90
2022-10-05T14:52:41.236Z,3.70
2022-10-05T14:55:28.060Z,3.75
2022-10-05T14:58:13.236Z,3.67
2022-10-05T15:01:00.901Z,3.67
2022-10-05T15:03:47.230Z,2.58
2022-10-05T15:06:27.123Z,3.53
2022-10-05T15:09:09.163Z,3.65
2022-10-05T15:11:48.678Z,2.75
2022-10-05T15:14:17.986Z,3.70
2022-10-05T15:16:44.496Z,5.63
2022-10-05T15:19:13.531Z,3.35
2022-10-05T15:21:45.128Z,4.38
2022-10-05T15:24:13.235Z,3.38
2022-10-05T15:26:39.817Z,5.53
2022-10-05T15:29:26.338Z,2.72
2022-10-05T15:31:52.777Z,3.58
2022-10-05T15:34:21.215Z,8.38
2022-10-05T15:36:48.118Z,4.38
2022-10-05T15:39:17.585Z,6.85
2022-10-05T15:42:00.511Z,2.90
2022-10-05T15:44:39.196Z,3.30
2022-10-05T15:47:26.177Z,3.53
2022-10-05T15:49:59.510Z,6.63
2022-10-05T15:52:27.777Z,4.22
2022-10-05T15:54:54.547Z,3.60
2022-10-05T15:57:21.787Z,4.72
2022-10-05T15:59:58.659Z,5.10
2022-10-05T16:02:31.348Z,7.75
2022-10-05T16:05:16.720Z,5.43
2022-10-05T16:08:06.882Z,6.90
2022-10-05T16:10:33.636Z,7.00
2022-10-05T16:13:00.191Z,7.00
2022-10-05T16:15:50.193Z,7.97
2022-10-05T16:18:32.263Z,7.90
2022-10-05T16:21:19.636Z,7.07
2022-10-05T16:23:49.233Z,9.43
2022-10-05T16:26:34.561Z,10.13
2022-10-05T16:29:01.147Z,7.68
2022-10-05T16:31:31.299Z,8.48
2022-10-05T16:34:33.376Z,6.43
2022-10-05T16:37:11.453Z,6.20
2022-10-05T16:39:41.085Z,9.02
2022-10-05T16:42:11.912Z,11.73
2022-10-05T16:45:07.806Z,9.27
2022-10-05T16:47:37.275Z,10.73
2022-10-05T16:50:04.875Z,8.18
2022-10-05T16:52:31.448Z,5.82
2022-10-05T16:54:58.860Z,7.05
2022-10-05T16:57:29.743Z,12.95
2022-10-05T17:00:16.091Z,7.30
2022-10-05T17:02:46.027Z,7.05
2022-10-05T17:05:12.555Z,11.65
2022-10-05T17:07:53.206Z,8.27
2022-10-05T17:10:37.964Z,9.25
2022-10-05T17:13:23.292Z,5.95
2022-10-05T17:15:55.911Z,6.80
2022-10-05T17:18:28.762Z,9.18
2022-10-05T17:21:02.624Z,5.50
2022-10-05T17:23:43.230Z,7.65
2022-10-05T17:26:32.248Z,11.57
2022-10-05T17:29:15.463Z,8.05
2022-10-05T17:32:01.088Z,5.38
2022-10-05T17:34:28.558Z,7.60
2022-10-05T17:36:59.767Z,8.05
2022-10-05T17:39:45.354Z,7.78
2022-10-05T17:42:28.808Z,6.22
2022-10-05T17:44:58.992Z,9.07
2022-10-05T17:47:47.397Z,7.72
2022-10-05T17:50:52.686Z,10.32
2022-10-05T17:53:38.794Z,7.72
2022-10-05T17:56:05.506Z,10.27
2022-10-05T17:58:32.023Z,10.27
2022-10-05T18:00:58.470Z,16.63
2022-10-05T18:03:39.190Z,11.40
2022-10-05T18:06:28.403Z,12.35
2022-10-05T18:09:13.722Z,9.48
2022-10-05T18:11:43.841Z,15.60
2022-10-05T18:14:18.443Z,9.98
2022-10-05T18:17:04.256Z,10.48
2022-10-05T18:19:32.417Z,10.35
2022-10-05T18:22:05.066Z,12.05
2022-10-05T18:24:38.218Z,11.82
2022-10-05T18:27:07.259Z,15.10
2022-10-05T18:30:01.662Z,12.75
2022-10-05T18:32:28.101Z,11.15
2022-10-05T18:35:21.094Z,11.13
2022-10-05T18:37:54.441Z,16.58
2022-10-05T18:40:26.607Z,11.77
2022-10-05T18:43:04.039Z,12.73
2022-10-05T18:45:42.802Z,11.50
2022-10-05T18:48:25.552Z,11.60
2022-10-05T18:50:54.082Z,13.30
2022-10-05T18:53:20.459Z,14.65
2022-10-05T18:55:48.906Z,15.30
2022-10-05T18:58:24.596Z,12.35
2022-10-05T19:01:02.931Z,12.82
2022-10-05T19:03:42.130Z,9.43
2022-10-05T19:06:13.037Z,12.45
2022-10-05T19:08:51.760Z,9.45
2022-10-05T19:11:38.292Z,12.88
2022-10-05T19:14:14.232Z,14.88
2022-10-05T19:16:54.714Z,14.20
2022-10-05T19:19:40.175Z,17.55
2022-10-05T19:22:09.781Z,14.60
2022-10-05T19:24:46.547Z,10.10
2022-10-05T19:27:31.751Z,11.48
2022-10-05T19:30:15.266Z,13.18
2022-10-05T19:32:41.723Z,12.32
2022-10-05T19:35:46.705Z,12.32
2022-10-05T19:38:25.283Z,11.02
2022-10-05T19:40:54.705Z,13.32
2022-10-05T19:43:31.552Z,16.17
2022-10-05T19:46:19.332Z,12.55
2022-10-05T19:48:48.500Z,12.55
2022-10-05T19:51:25.438Z,13.00
2022-10-05T19:53:55.984Z,8.23
2022-10-05T19:56:25.228Z,12.43
2022-10-05T19:58:57.453Z,16.95
2022-10-05T20:01:25.068Z,10.50
2022-10-05T20:03:51.700Z,11.52
2022-10-05T20:06:18.938Z,10.73
2022-10-05T20:08:46.098Z,8.57
2022-10-05T20:11:13.325Z,11.25
2022-10-05T20:13:44.057Z,9.63
2022-10-05T20:16:35.576Z,9.57
2022-10-05T20:19:21.074Z,8.25
2022-10-05T20:21:51.588Z,8.48
2022-10-05T20:24:18.032Z,9.60
2022-10-05T20:27:06.923Z,10.85
2022-10-05T20:29:35.596Z,9.15
2022-10-05T20:32:09.026Z,8.98
2022-10-05T20:34:36.018Z,7.93
2022-10-05T20:37:02.566Z,8.32
2022-10-05T20:39:31.355Z,11.45
2022-10-05T20:41:59.310Z,13.05
2022-10-05T20:44:26.185Z,9.43
2022-10-05T20:46:55.231Z,10.75
2022-10-05T20:49:22.874Z,12.45
2022-10-05T20:51:49.418Z,11.52
2022-10-05T20:54:19.061Z,10.30
2022-10-05T20:56:46.202Z,7.53
2022-10-05T20:59:13.387Z,11.73
2022-10-05T21:01:40.191Z,8.35
2022-10-05T21:04:07.354Z,9.50
2022-10-05T21:06:33.917Z,10.95
2022-10-05T21:09:00.464Z,10.68
2022-10-05T21:11:28.224Z,11.93
2022-10-05T21:13:54.709Z,12.55
2022-10-05T21:16:21.391Z,11.50
2022-10-05T21:18:48.762Z,13.07
2022-10-05T21:21:17.112Z,13.77
2022-10-05T21:23:46.896Z,12.23
2022-10-05T21:26:13.558Z,9.45
2022-10-05T21:28:40.171Z,11.32
2022-10-05T21:31:07.102Z,10.23
2022-10-05T21:33:33.672Z,10.10
2022-10-05T21:36:00.212Z,10.82
2022-10-05T21:38:27.000Z,11.77
2022-10-05T21:40:53.662Z,13.15
2022-10-05T21:43:20.207Z,10.73
2022-10-05T21:45:46.764Z,12.20
2022-10-05T21:48:13.664Z,9.25
2022-10-05T21:50:40.086Z,10.98
2022-10-05T21:53:07.426Z,13.88
2022-10-05T21:55:33.888Z,11.25
2022-10-05T21:58:00.448Z,9.93
2022-10-05T22:00:26.990Z,9.32
2022-10-05T22:02:53.515Z,10.30
2022-10-05T22:05:19.991Z,8.43
2022-10-05T22:07:46.450Z,8.85
2022-10-05T22:10:12.933Z,12.10
2022-10-05T22:12:39.392Z,9.60
2022-10-05T22:15:07.489Z,10.48
2022-10-05T22:17:33.945Z,8.50
2022-10-05T22:20:00.429Z,9.32
2022-10-05T22:22:27.233Z,11.60
2022-10-05T22:24:53.805Z,8.27
2022-10-05T22:27:20.652Z,10.82
2022-10-05T22:29:47.090Z,8.40
2022-10-05T22:32:13.510Z,6.95
2022-10-05T22:34:39.947Z,7.95
2022-10-05T22:37:06.484Z,9.32
2022-10-05T22:39:32.985Z,7.87
2022-10-05T22:41:59.457Z,5.35
2022-10-05T22:44:25.916Z,6.90
2022-10-05T22:46:52.338Z,8.43
2022-10-05T22:49:18.742Z,9.68
2022-10-05T22:51:45.197Z,8.02
2022-10-05T22:54:11.656Z,6.43
2022-10-05T22:56:38.135Z,4.97
2022-10-05T22:59:04.702Z,7.07
2022-10-05T23:01:31.224Z,5.93
2022-10-05T23:03:57.825Z,7.05
2022-10-05T23:06:26.684Z,8.02
2022-10-05T23:08:53.672Z,5.60
2022-10-05T23:11:22.040Z,5.93
2022-10-05T23:13:48.690Z,8.60
2022-10-05T23:16:15.945Z,4.30
2022-10-05T23:18:42.522Z,4.05
2022-10-05T23:21:09.155Z,6.07
2022-10-05T23:23:36.429Z,3.60
2022-10-05T23:26:03.033Z,3.88
2022-10-05T23:28:29.959Z,5.25
2022-10-05T23:31:00.414Z,4.13
2022-10-05T23:33:27.102Z,4.63
2022-10-05T23:35:57.624Z,5.68
2022-10-05T23:38:24.092Z,4.65
2022-10-05T23:40:50.558Z,6.10
2022-10-05T23:43:17.028Z,5.78
2022-10-05T23:45:46.713Z,2.97
2022-10-05T23:48:13.776Z,3.70
2022-10-05T23:50:40.360Z,4.93
2022-10-05T23:53:07.109Z,4.55
2022-10-05T23:55:33.903Z,3.25
2022-10-05T23:58:00.336Z,3.47
